createdAt,value
2018-09-02T00:03:37.200Z,23.07
2018-09-02T00:08:40.698Z,23.07
2018-09-02T00:13:44.409Z,23.05
2018-09-02T00:18:48.440Z,23.00
2018-09-02T00:23:52.052Z,23.02
2018-09-02T00:28:56.162Z,22.97
2018-09-02T00:33:59.996Z,22.96
2018-09-02T00:39:03.715Z,22.95
2018-09-02T00:44:07.742Z,22.90
2018-09-02T00:49:12.595Z,22.83
2018-09-02T00:54:16.099Z,22.85
2018-09-02T00:59:19.757Z,22.81
2018-09-02T01:04:23.658Z,22.76
2018-09-02T01:09:27.497Z,22.78
2018-09-02T01:14:31.106Z,22.78
2018-09-02T01:19:34.988Z,22.74
2018-09-02T01:24:38.605Z,22.77
2018-09-02T01:29:42.580Z,22.75
2018-09-02T01:34:46.485Z,22.73
2018-09-02T01:39:50.026Z,22.72
2018-09-02T01:44:53.489Z,22.74
2018-09-02T01:49:57.085Z,22.75
2018-09-02T01:55:00.586Z,22.73
2018-09-02T02:00:04.108Z,22.73
2018-09-02T02:05:07.900Z,22.73
2018-09-02T02:10:11.800Z,22.75
2018-09-02T02:15:15.349Z,22.71
2018-09-02T02:20:18.877Z,22.72
2018-09-02T02:25:22.483Z,22.70
2018-09-02T02:30:26.051Z,22.71
2018-09-02T02:35:29.947Z,22.70
2018-09-02T02:40:33.634Z,22.67
2018-09-02T02:45:37.147Z,22.69
2018-09-02T02:50:40.751Z,22.68
2018-09-02T02:55:44.278Z,22.67
2018-09-02T03:00:47.847Z,22.65
2018-09-02T03:05:51.504Z,22.66
2018-09-02T03:10:55.322Z,22.67
2018-09-02T03:15:59.024Z,22.62
2018-09-02T03:21:02.739Z,22.63
2018-09-02T03:26:06.477Z,22.62
2018-09-02T03:31:10.173Z,22.60
2018-09-02T03:36:13.683Z,22.60
2018-09-02T03:41:17.277Z,22.58
2018-09-02T03:46:20.786Z,22.55
2018-09-02T03:51:24.209Z,22.58
2018-09-02T03:56:27.696Z,22.56
2018-09-02T04:01:31.170Z,22.51
2018-09-02T04:06:35.112Z,22.56
2018-09-02T04:11:38.795Z,22.55
2018-09-02T04:16:42.296Z,22.55
2018-09-02T04:21:45.823Z,22.55
2018-09-02T04:26:49.663Z,22.54
2018-09-02T04:31:53.310Z,22.53
2018-09-02T04:36:56.801Z,22.48
2018-09-02T04:42:00.289Z,22.47
2018-09-02T04:47:03.986Z,22.47
2018-09-02T04:52:07.793Z,22.47
2018-09-02T04:57:11.289Z,22.27
2018-09-02T05:02:15.436Z,22.18
2018-09-02T05:07:19.043Z,22.26
2018-09-02T05:12:22.738Z,22.27
2018-09-02T05:17:28.231Z,22.33
2018-09-02T05:22:31.770Z,22.31
2018-09-02T05:27:35.288Z,22.33
2018-09-02T05:32:38.961Z,22.32
2018-09-02T05:37:42.811Z,22.22
2018-09-02T05:42:46.490Z,22.24
2018-09-02T05:47:50.740Z,22.27
2018-09-02T05:52:54.189Z,22.21
2018-09-02T05:57:57.738Z,22.19
2018-09-02T06:03:01.421Z,22.21
2018-09-02T06:08:04.916Z,22.25
2018-09-02T06:13:08.623Z,22.29
2018-09-02T06:18:12.244Z,22.28
2018-09-02T06:23:15.645Z,22.24
2018-09-02T06:28:19.377Z,22.22
2018-09-02T06:33:23.056Z,22.17
2018-09-02T06:38:26.513Z,22.20
2018-09-02T06:43:29.982Z,22.23
2018-09-02T06:48:33.515Z,22.21
2018-09-02T06:53:36.937Z,22.27
2018-09-02T06:58:40.411Z,22.30
2018-09-02T07:03:43.837Z,22.33
2018-09-02T07:08:47.309Z,21.77
2018-09-02T07:13:50.745Z,20.71
2018-09-02T07:18:54.217Z,20.70
2018-09-02T07:23:57.697Z,21.49
2018-09-02T07:29:01.150Z,21.54
2018-09-02T07:34:04.759Z,21.73
2018-09-02T07:39:09.176Z,21.56
2018-09-02T07:44:12.834Z,21.47
2018-09-02T07:49:16.248Z,21.47
2018-09-02T07:54:19.915Z,21.47
2018-09-02T07:59:23.378Z,21.55
2018-09-02T08:04:26.848Z,21.25
2018-09-02T08:09:30.561Z,21.67
2018-09-02T08:14:34.324Z,21.75
2018-09-02T08:19:37.825Z,21.66
2018-09-02T08:24:41.279Z,21.84
2018-09-02T08:29:44.690Z,21.73
2018-09-02T08:34:48.227Z,21.79
2018-09-02T08:39:51.699Z,22.04
2018-09-02T08:44:55.194Z,22.12
2018-09-02T08:49:58.645Z,22.07
2018-09-02T08:55:02.433Z,22.17
2018-09-02T09:00:07.068Z,22.15
2018-09-02T09:05:10.587Z,22.07
2018-09-02T09:10:14.823Z,21.80
2018-09-02T09:15:18.335Z,21.84
2018-09-02T09:20:21.938Z,22.01
2018-09-02T09:25:26.389Z,21.87
2018-09-02T09:30:29.899Z,21.85
2018-09-02T09:35:33.411Z,21.79
2018-09-02T09:40:36.927Z,21.66
2018-09-02T09:45:40.621Z,21.59
2018-09-02T09:50:44.102Z,21.71
2018-09-02T09:55:47.580Z,21.64
2018-09-02T10:00:52.442Z,21.14
2018-09-02T10:05:55.935Z,21.46
2018-09-02T10:10:59.452Z,21.69
2018-09-02T10:16:03.099Z,21.62
2018-09-02T10:21:06.523Z,21.44
2018-09-02T10:26:10.126Z,21.55
2018-09-02T10:31:14.316Z,21.29
2018-09-02T10:36:17.826Z,21.48
2018-09-02T10:41:21.549Z,21.49
2018-09-02T10:46:25.242Z,21.67
2018-09-02T10:51:28.709Z,21.69
2018-09-02T10:56:32.170Z,21.72
2018-09-02T11:01:35.889Z,21.62
2018-09-02T11:06:39.559Z,21.61
2018-09-02T11:11:43.342Z,21.34
2018-09-02T11:16:46.869Z,21.24
2018-09-02T11:21:50.382Z,21.12
2018-09-02T11:26:53.875Z,21.07
2018-09-02T11:31:57.331Z,21.25
2018-09-02T11:37:00.771Z,21.10
2018-09-02T11:42:04.469Z,21.38
2018-09-02T11:47:07.924Z,21.48
2018-09-02T11:52:11.398Z,21.28
2018-09-02T11:57:15.082Z,21.29
2018-09-02T12:02:18.939Z,21.41
2018-09-02T12:07:22.377Z,21.35
2018-09-02T12:12:25.842Z,21.40
2018-09-02T12:17:29.463Z,21.40
2018-09-02T12:22:33.921Z,21.35
2018-09-02T12:27:37.733Z,21.29
2018-09-02T12:32:43.092Z,21.36
2018-09-02T12:37:46.909Z,21.44
2018-09-02T12:42:50.627Z,21.32
2018-09-02T12:47:54.361Z,21.31
2018-09-02T12:52:57.982Z,21.28
2018-09-02T12:58:01.465Z,21.23
2018-09-02T13:03:06.138Z,21.39
2018-09-02T13:08:09.557Z,21.29
2018-09-02T13:13:13.241Z,21.29
2018-09-02T13:18:16.945Z,20.98
2018-09-02T13:23:20.691Z,20.95
2018-09-02T13:28:24.421Z,20.94
2018-09-02T13:33:28.256Z,21.15
2018-09-02T13:38:31.711Z,21.06
2018-09-02T13:43:35.143Z,21.24
2018-09-02T13:48:38.786Z,21.30
2018-09-02T13:53:42.278Z,21.19
2018-09-02T13:58:46.051Z,21.26
2018-09-02T14:03:49.661Z,21.32
2018-09-02T14:08:53.070Z,21.32
2018-09-02T14:13:56.574Z,21.32
2018-09-02T14:19:00.333Z,21.43
2018-09-02T14:24:04.197Z,21.56
2018-09-02T14:29:07.734Z,21.57
2018-09-02T14:34:11.217Z,21.51
2018-09-02T14:39:15.358Z,21.56
2018-09-02T14:44:18.810Z,21.39
2018-09-02T14:49:22.640Z,21.19
2018-09-02T14:54:26.136Z,21.18
2018-09-02T14:59:29.680Z,21.10
2018-09-02T15:04:33.121Z,21.22
2018-09-02T15:09:36.671Z,21.15
2018-09-02T15:14:40.286Z,21.09
2018-09-02T15:19:43.799Z,21.19
2018-09-02T15:24:47.254Z,21.13
2018-09-02T15:29:50.684Z,21.39
2018-09-02T15:34:54.526Z,21.35
2018-09-02T15:39:58.089Z,21.41
2018-09-02T15:45:02.288Z,21.36
2018-09-02T15:50:06.917Z,21.21
2018-09-02T15:55:10.537Z,21.32
2018-09-02T16:00:15.354Z,21.23
2018-09-02T16:05:19.743Z,21.37
2018-09-02T16:10:23.233Z,21.39
2018-09-02T16:15:26.726Z,21.48
2018-09-02T16:20:30.242Z,21.69
2018-09-02T16:25:33.675Z,21.74
2018-09-02T16:30:37.157Z,21.76
2018-09-02T16:35:40.635Z,21.57
2018-09-02T16:40:44.117Z,21.43
2018-09-02T16:45:47.965Z,21.45
2018-09-02T16:50:51.678Z,21.43
2018-09-02T16:55:55.158Z,21.38
2018-09-02T17:00:59.226Z,21.35
2018-09-02T17:06:03.798Z,21.60
2018-09-02T17:11:08.602Z,21.62
2018-09-02T17:16:13.594Z,21.48
2018-09-02T17:21:17.353Z,21.50
2018-09-02T17:26:22.043Z,21.46
2018-09-02T17:31:27.344Z,21.48
2018-09-02T17:36:30.834Z,21.41
2018-09-02T17:41:34.329Z,21.43
2018-09-02T17:46:38.681Z,21.66
2018-09-02T17:51:44.626Z,21.68
2018-09-02T17:56:49.025Z,21.75
2018-09-02T18:01:53.780Z,21.90
2018-09-02T18:06:57.504Z,22.00
2018-09-02T18:12:02.054Z,22.06
2018-09-02T18:17:07.025Z,22.11
2018-09-02T18:22:10.515Z,22.14
2018-09-02T18:27:16.877Z,22.20
2018-09-02T18:32:20.347Z,22.24
2018-09-02T18:37:25.586Z,22.26
2018-09-02T18:42:29.586Z,22.29
2018-09-02T18:47:34.948Z,22.33
2018-09-02T18:52:38.980Z,22.35
2018-09-02T18:57:42.683Z,22.37
2018-09-02T19:02:47.586Z,22.40
2018-09-02T19:07:51.093Z,22.42
2018-09-02T19:12:55.372Z,22.43
2018-09-02T19:17:59.294Z,22.43
2018-09-02T19:23:03.118Z,22.48
2018-09-02T19:28:07.051Z,22.50
2018-09-02T19:33:12.432Z,22.50
2018-09-02T19:38:17.429Z,22.53
2018-09-02T19:43:21.132Z,22.54
2018-09-02T19:48:24.943Z,22.56
2018-09-02T19:53:28.812Z,22.56
2018-09-02T19:58:32.771Z,22.58
2018-09-02T20:03:36.242Z,22.57
2018-09-02T20:08:41.507Z,22.59
2018-09-02T20:13:45.461Z,22.59
2018-09-02T20:18:51.545Z,22.59
2018-09-02T20:29:00.512Z,22.62
2018-09-02T20:34:05.509Z,22.64
2018-09-02T20:39:10.899Z,22.64
2018-09-02T20:44:15.550Z,22.64
2018-09-02T20:49:20.098Z,22.63
2018-09-02T20:54:24.776Z,22.65
2018-09-02T20:59:29.541Z,22.66
2018-09-02T21:04:34.853Z,22.67
2018-09-02T21:09:40.053Z,22.68
2018-09-02T21:14:43.749Z,22.68
2018-09-02T21:19:49.124Z,22.68
2018-09-02T21:24:54.938Z,22.69
2018-09-02T21:29:59.941Z,22.70
2018-09-02T21:35:06.629Z,22.71
2018-09-02T21:40:10.158Z,22.70
2018-09-02T21:45:14.931Z,22.70
2018-09-02T21:50:18.602Z,22.71
2018-09-02T21:55:22.735Z,22.73
2018-09-02T22:00:26.296Z,22.73
2018-09-02T22:05:30.790Z,22.73
2018-09-02T22:10:34.297Z,22.73
2018-09-02T22:15:39.163Z,22.69
2018-09-02T22:20:42.689Z,22.64
2018-09-02T22:30:48.792Z,22.57
2018-09-02T22:35:52.321Z,22.57
2018-09-02T22:40:55.905Z,22.57
2018-09-02T22:45:59.405Z,22.58
2018-09-02T22:51:03.073Z,22.56
2018-09-02T22:56:06.665Z,22.53
2018-09-02T23:01:10.314Z,22.54
2018-09-02T23:06:13.821Z,22.52
2018-09-02T23:11:17.337Z,22.53
2018-09-02T23:16:20.842Z,22.49
2018-09-02T23:21:24.353Z,22.51
2018-09-02T23:26:27.919Z,22.51
2018-09-02T23:31:31.389Z,22.49
2018-09-02T23:36:35.035Z,22.48
2018-09-02T23:41:38.534Z,22.48
2018-09-02T23:46:42.042Z,22.48
2018-09-02T23:51:45.621Z,22.47
2018-09-02T23:56:49.300Z,22.46
